createdAt,value
2018-07-22T00:00:34.693Z,1006.70
2018-07-22T00:01:34.670Z,1006.67
2018-07-22T00:02:34.674Z,1006.72
2018-07-22T00:03:34.643Z,1006.75
2018-07-22T00:04:34.632Z,1006.69
2018-07-22T00:05:34.618Z,1006.73
2018-07-22T00:06:34.607Z,1006.72
2018-07-22T00:07:34.592Z,1006.66
2018-07-22T00:08:34.587Z,1006.69
2018-07-22T00:09:34.567Z,1006.69
2018-07-22T00:10:34.554Z,1006.68
2018-07-22T00:11:34.540Z,1006.68
2018-07-22T00:12:34.525Z,1006.70
2018-07-22T00:13:34.512Z,1006.65
2018-07-22T00:14:34.501Z,1006.65
2018-07-22T00:15:34.490Z,1006.64
2018-07-22T00:16:34.530Z,1006.64
2018-07-22T00:17:34.459Z,1006.65
2018-07-22T00:18:34.447Z,1006.64
2018-07-22T00:19:34.431Z,1006.62
2018-07-22T00:20:34.422Z,1006.63
2018-07-22T00:21:34.406Z,1006.67
2018-07-22T00:22:34.393Z,1006.66
2018-07-22T00:23:34.379Z,1006.63
2018-07-22T00:24:34.374Z,1006.61
2018-07-22T00:25:34.354Z,1006.66
2018-07-22T00:26:34.338Z,1006.65
2018-07-22T00:27:34.332Z,1006.61
2018-07-22T00:28:34.312Z,1006.67
2018-07-22T00:29:34.298Z,1006.61
2018-07-22T00:30:34.286Z,1006.62
2018-07-22T00:31:34.275Z,1006.65
2018-07-22T00:32:34.261Z,1006.68
2018-07-22T00:33:34.245Z,1006.65
2018-07-22T00:34:34.238Z,1006.67
2018-07-22T00:35:34.218Z,1006.64
2018-07-22T00:36:34.205Z,1006.65
2018-07-22T00:37:34.194Z,1006.70
2018-07-22T00:38:34.188Z,1006.74
2018-07-22T00:39:34.165Z,1006.73
2018-07-22T00:40:34.152Z,1006.74
2018-07-22T00:41:34.142Z,1006.77
2018-07-22T00:42:34.126Z,1006.75
2018-07-22T00:43:34.110Z,1006.77
2018-07-22T00:44:34.099Z,1006.75
2018-07-22T00:45:34.086Z,1006.75
2018-07-22T00:46:34.071Z,1006.76
2018-07-22T00:47:34.057Z,1006.72
2018-07-22T00:48:34.043Z,1006.75
2018-07-22T00:49:34.033Z,1006.72
2018-07-22T00:50:34.017Z,1006.75
2018-07-22T00:51:34.001Z,1006.69
2018-07-22T00:52:33.989Z,1006.75
2018-07-22T00:53:33.975Z,1006.74
2018-07-22T00:54:33.962Z,1006.74
2018-07-22T00:55:33.948Z,1006.75
2018-07-22T00:56:33.935Z,1006.69
2018-07-22T00:57:33.921Z,1006.69
2018-07-22T00:58:33.906Z,1006.75
2018-07-22T00:59:33.892Z,1006.74
2018-07-22T01:00:33.886Z,1006.70
2018-07-22T01:01:33.868Z,1006.72
2018-07-22T01:02:33.853Z,1006.71
2018-07-22T01:03:33.838Z,1006.75
2018-07-22T01:04:33.827Z,1006.73
2018-07-22T01:05:33.811Z,1006.71
2018-07-22T01:06:33.806Z,1006.72
2018-07-22T01:07:33.785Z,1006.72
2018-07-22T01:08:33.774Z,1006.73
2018-07-22T01:09:33.762Z,1006.70
2018-07-22T01:10:33.748Z,1006.71
2018-07-22T01:11:33.730Z,1006.69
2018-07-22T01:12:33.719Z,1006.68
2018-07-22T01:13:33.703Z,1006.67
2018-07-22T01:14:33.693Z,1006.63
2018-07-22T01:15:33.676Z,1006.64
2018-07-22T01:16:33.663Z,1006.65
2018-07-22T01:17:33.663Z,1006.72
2018-07-22T01:18:33.636Z,1006.70
2018-07-22T01:19:33.624Z,1006.64
2018-07-22T01:20:33.607Z,1006.60
2018-07-22T01:21:33.601Z,1006.66
2018-07-22T01:22:33.580Z,1006.61
2018-07-22T01:23:33.569Z,1006.64
2018-07-22T01:24:33.553Z,1006.64
2018-07-22T01:25:33.540Z,1006.67
2018-07-22T01:26:33.525Z,1006.67
2018-07-22T01:27:33.512Z,1006.64
2018-07-22T01:28:33.497Z,1006.62
2018-07-22T01:29:33.483Z,1006.69
2018-07-22T01:30:33.471Z,1006.68
2018-07-22T01:31:33.457Z,1006.67
2018-07-22T01:32:33.442Z,1006.70
2018-07-22T01:33:33.430Z,1006.69
2018-07-22T01:34:33.421Z,1006.68
2018-07-22T01:35:33.400Z,1006.69
2018-07-22T01:36:33.518Z,1006.65
2018-07-22T01:37:33.377Z,1006.65
2018-07-22T01:38:33.361Z,1006.62
2018-07-22T01:39:33.347Z,1006.67
2018-07-22T01:40:33.335Z,1006.65
2018-07-22T01:41:33.320Z,1006.73
2018-07-22T01:42:33.315Z,1006.68
2018-07-22T01:43:33.305Z,1006.69
2018-07-22T01:44:33.280Z,1006.72
2018-07-22T01:45:33.265Z,1006.73
2018-07-22T01:46:33.256Z,1006.71
2018-07-22T01:47:33.261Z,1006.74
2018-07-22T01:48:33.222Z,1006.74
2018-07-22T01:49:33.212Z,1006.73
2018-07-22T01:50:33.196Z,1006.73
2018-07-22T01:51:33.185Z,1006.73
2018-07-22T01:52:33.168Z,1006.72
2018-07-22T01:53:33.158Z,1006.74
2018-07-22T01:54:33.139Z,1006.70
2018-07-22T01:55:33.237Z,1006.74
2018-07-22T01:56:33.123Z,1006.71
2018-07-22T01:57:33.098Z,1006.72
2018-07-22T01:58:33.085Z,1006.74
2018-07-22T01:59:33.075Z,1006.77
2018-07-22T02:00:33.056Z,1006.76
2018-07-22T02:01:33.053Z,1006.76
2018-07-22T02:02:33.029Z,1006.76
2018-07-22T02:03:33.014Z,1006.77
2018-07-22T02:04:33.001Z,1006.80
2018-07-22T02:05:32.987Z,1006.75
2018-07-22T02:06:32.975Z,1006.78
2018-07-22T02:07:32.959Z,1006.77
2018-07-22T02:08:32.946Z,1006.77
2018-07-22T02:09:32.930Z,1006.78
2018-07-22T02:10:32.921Z,1006.78
2018-07-22T02:11:32.901Z,1006.76
2018-07-22T02:12:32.889Z,1006.80
2018-07-22T02:13:32.876Z,1006.77
2018-07-22T02:14:32.862Z,1006.82
2018-07-22T02:15:32.856Z,1006.79
2018-07-22T02:16:32.842Z,1006.76
2018-07-22T02:17:32.822Z,1006.78
2018-07-22T02:18:32.807Z,1006.81
2018-07-22T02:19:32.792Z,1006.78
2018-07-22T02:20:32.781Z,1006.75
2018-07-22T02:21:32.772Z,1006.80
2018-07-22T02:22:32.754Z,1006.83
2018-07-22T02:23:32.745Z,1006.80
2018-07-22T02:24:32.727Z,1006.80
2018-07-22T02:25:32.792Z,1006.79
2018-07-22T02:26:32.697Z,1006.82
2018-07-22T02:27:32.685Z,1006.77
2018-07-22T02:28:32.672Z,1006.75
2018-07-22T02:29:32.664Z,1006.77
2018-07-22T02:30:32.643Z,1006.80
2018-07-22T02:31:32.629Z,1006.81
2018-07-22T02:32:32.630Z,1006.79
2018-07-22T02:33:32.604Z,1006.80
2018-07-22T02:34:32.597Z,1006.81
2018-07-22T02:35:32.572Z,1006.82
2018-07-22T02:36:32.567Z,1006.85
2018-07-22T02:37:32.546Z,1006.83
2018-07-22T02:38:32.535Z,1006.83
2018-07-22T02:39:32.524Z,1006.82
2018-07-22T02:40:32.506Z,1006.78
2018-07-22T02:41:32.503Z,1006.78
2018-07-22T02:42:32.478Z,1006.83
2018-07-22T02:43:32.470Z,1006.85
2018-07-22T02:44:32.495Z,1006.90
2018-07-22T02:45:32.441Z,1006.90
2018-07-22T02:46:32.426Z,1006.90
2018-07-22T02:47:32.410Z,1006.92
2018-07-22T02:48:32.401Z,1006.89
2018-07-22T02:49:32.385Z,1006.92
2018-07-22T02:50:32.381Z,1006.92
2018-07-22T02:51:32.408Z,1006.92
2018-07-22T02:52:32.345Z,1006.96
2018-07-22T02:53:32.330Z,1006.95
2018-07-22T02:54:32.314Z,1006.98
2018-07-22T02:55:32.299Z,1007.00
2018-07-22T02:56:32.291Z,1007.01
2018-07-22T02:57:32.273Z,1007.00
2018-07-22T02:58:32.260Z,1007.04
2018-07-22T02:59:32.244Z,1007.01
2018-07-22T03:00:32.231Z,1007.07
2018-07-22T03:01:32.228Z,1007.02
2018-07-22T03:02:32.205Z,1007.00
2018-07-22T03:03:32.186Z,1007.03
2018-07-22T03:04:32.176Z,1007.06
2018-07-22T03:05:32.300Z,1007.07
2018-07-22T03:06:32.150Z,1007.08
2018-07-22T03:07:32.137Z,1007.08
2018-07-22T03:08:32.122Z,1007.09
2018-07-22T03:09:32.107Z,1007.13
2018-07-22T03:10:32.097Z,1007.14
2018-07-22T03:11:32.085Z,1007.09
2018-07-22T03:12:32.064Z,1007.10
2018-07-22T03:13:32.059Z,1007.09
2018-07-22T03:14:32.037Z,1007.06
2018-07-22T03:15:32.024Z,1007.06
2018-07-22T03:16:32.008Z,1007.07
2018-07-22T03:17:31.994Z,1007.09
2018-07-22T03:18:31.981Z,1007.03
2018-07-22T03:19:31.967Z,1007.04
2018-07-22T03:20:31.952Z,1007.03
2018-07-22T03:21:31.942Z,1007.03
2018-07-22T03:22:31.926Z,1007.07
2018-07-22T03:23:31.910Z,1007.06
2018-07-22T03:24:31.898Z,1007.06
2018-07-22T03:25:31.884Z,1007.11
2018-07-22T03:26:31.868Z,1007.11
2018-07-22T03:27:31.858Z,1007.14
2018-07-22T03:28:31.845Z,1007.16
2018-07-22T03:29:31.827Z,1007.18
2018-07-22T03:30:31.828Z,1007.22
2018-07-22T03:31:31.798Z,1007.22
2018-07-22T03:32:31.787Z,1007.26
2018-07-22T03:33:31.773Z,1007.24
2018-07-22T03:34:31.758Z,1007.28
2018-07-22T03:35:31.747Z,1007.27
2018-07-22T03:36:31.734Z,1007.28
2018-07-22T03:37:31.757Z,1007.30
2018-07-22T03:38:31.715Z,1007.29
2018-07-22T03:39:31.688Z,1007.29
2018-07-22T03:40:31.674Z,1007.30
2018-07-22T03:41:31.661Z,1007.28
2018-07-22T03:42:31.655Z,1007.31
2018-07-22T03:43:31.637Z,1007.30
2018-07-22T03:44:31.620Z,1007.33
2018-07-22T03:45:31.604Z,1007.33
2018-07-22T03:46:31.593Z,1007.31
2018-07-22T03:47:31.649Z,1007.29
2018-07-22T03:48:31.565Z,1007.34
2018-07-22T03:49:31.547Z,1007.36
2018-07-22T03:50:31.535Z,1007.35
2018-07-22T03:51:31.519Z,1007.40
2018-07-22T03:52:31.512Z,1007.42
2018-07-22T03:53:31.496Z,1007.40
2018-07-22T03:54:31.479Z,1007.44
2018-07-22T03:55:31.463Z,1007.44
2018-07-22T03:56:31.449Z,1007.46
2018-07-22T03:57:31.437Z,1007.46
2018-07-22T03:58:31.426Z,1007.47
2018-07-22T03:59:31.407Z,1007.45
2018-07-22T04:00:31.395Z,1007.45
2018-07-22T04:01:31.378Z,1007.45
2018-07-22T04:02:31.373Z,1007.48
2018-07-22T04:03:31.352Z,1007.50
2018-07-22T04:04:31.338Z,1007.52
2018-07-22T04:05:31.324Z,1007.54
2018-07-22T04:06:31.319Z,1007.55
2018-07-22T04:07:31.295Z,1007.53
2018-07-22T04:08:31.283Z,1007.54
2018-07-22T04:09:31.269Z,1007.53
2018-07-22T04:10:31.256Z,1007.53
2018-07-22T04:11:31.251Z,1007.51
2018-07-22T04:12:31.234Z,1007.55
2018-07-22T04:13:31.212Z,1007.57
2018-07-22T04:14:31.207Z,1007.54
2018-07-22T04:15:31.184Z,1007.59
2018-07-22T04:16:31.171Z,1007.57
2018-07-22T04:17:31.155Z,1007.61
2018-07-22T04:18:31.142Z,1007.62
2018-07-22T04:19:31.132Z,1007.64
2018-07-22T04:20:31.114Z,1007.67
2018-07-22T04:21:31.142Z,1007.68
2018-07-22T04:22:31.085Z,1007.62
2018-07-22T04:23:31.080Z,1007.63
2018-07-22T04:24:31.057Z,1007.62
2018-07-22T04:25:31.045Z,1007.58
2018-07-22T04:26:31.029Z,1007.54
2018-07-22T04:27:31.024Z,1007.58
2018-07-22T04:28:31.001Z,1007.55
2018-07-22T04:29:30.988Z,1007.57
2018-07-22T04:30:30.974Z,1007.54
2018-07-22T04:31:30.959Z,1007.59
2018-07-22T04:32:30.946Z,1007.58
2018-07-22T04:33:30.932Z,1007.57
2018-07-22T04:34:30.916Z,1007.59
2018-07-22T04:35:30.903Z,1007.58
2018-07-22T04:36:30.890Z,1007.59
2018-07-22T04:37:30.874Z,1007.60
2018-07-22T04:38:30.862Z,1007.60
2018-07-22T04:39:30.847Z,1007.60
2018-07-22T04:40:30.835Z,1007.59
2018-07-22T04:41:30.821Z,1007.58
2018-07-22T04:42:30.805Z,1007.57
2018-07-22T04:43:30.802Z,1007.57
2018-07-22T04:44:30.778Z,1007.56
2018-07-22T04:45:30.765Z,1007.58
2018-07-22T04:46:30.751Z,1007.56
2018-07-22T04:47:30.743Z,1007.60
2018-07-22T04:48:30.721Z,1007.58
2018-07-22T04:49:30.712Z,1007.61
2018-07-22T04:50:30.696Z,1007.64
2018-07-22T04:51:30.690Z,1007.66
2018-07-22T04:52:30.668Z,1007.67
2018-07-22T04:53:30.675Z,1007.68
2018-07-22T04:54:30.648Z,1007.72
2018-07-22T04:55:30.625Z,1007.69
2018-07-22T04:56:30.612Z,1007.72
2018-07-22T04:57:30.601Z,1007.71
2018-07-22T04:58:30.585Z,1007.70
2018-07-22T04:59:30.575Z,1007.71
2018-07-22T05:00:30.558Z,1007.67
2018-07-22T05:01:30.547Z,1007.68
2018-07-22T05:02:30.530Z,1007.69
2018-07-22T05:03:30.639Z,1007.72
2018-07-22T05:04:30.504Z,1007.79
2018-07-22T05:05:30.489Z,1007.78
2018-07-22T05:06:30.475Z,1007.79
2018-07-22T05:07:30.461Z,1007.81
2018-07-22T05:08:30.446Z,1007.79
2018-07-22T05:09:30.434Z,1007.82
2018-07-22T05:10:30.424Z,1007.87
2018-07-22T05:11:30.407Z,1007.84
2018-07-22T05:12:30.403Z,1007.84
2018-07-22T05:13:30.379Z,1007.91
2018-07-22T05:14:30.367Z,1007.91
2018-07-22T05:15:30.354Z,1007.96
2018-07-22T05:16:30.339Z,1007.98
2018-07-22T05:17:30.328Z,1008.01
2018-07-22T05:18:30.320Z,1007.97
2018-07-22T05:19:30.297Z,1007.98
2018-07-22T05:20:30.283Z,1007.99
2018-07-22T05:21:30.270Z,1007.96
2018-07-22T05:22:30.360Z,1007.97
2018-07-22T05:23:30.250Z,1008.00
2018-07-22T05:24:30.231Z,1008.02
2018-07-22T05:25:30.217Z,1007.98
2018-07-22T05:26:30.202Z,1008.00
2018-07-22T05:27:30.188Z,1007.98
2018-07-22T05:28:30.177Z,1007.96
2018-07-22T05:29:30.165Z,1008.00
2018-07-22T05:30:30.149Z,1008.02
2018-07-22T05:31:30.136Z,1008.03
2018-07-22T05:32:30.141Z,1008.07
2018-07-22T05:33:30.111Z,1008.06
2018-07-22T05:34:30.096Z,1008.09
2018-07-22T05:35:30.083Z,1008.08
2018-07-22T05:36:30.071Z,1008.07
2018-07-22T05:37:30.057Z,1008.11
2018-07-22T05:38:30.044Z,1008.11
2018-07-22T05:39:30.037Z,1008.12
2018-07-22T05:40:30.018Z,1008.28
2018-07-22T05:41:30.006Z,1008.49
2018-07-22T05:42:29.992Z,1008.70
2018-07-22T05:43:29.987Z,1008.78
2018-07-22T05:44:29.967Z,1008.89
2018-07-22T05:45:29.952Z,1009.03
2018-07-22T05:46:29.941Z,1009.15
2018-07-22T05:47:29.926Z,1009.29
2018-07-22T05:48:29.914Z,1009.33
2018-07-22T05:49:29.908Z,1009.34
2018-07-22T05:50:29.890Z,1009.23
2018-07-22T05:51:29.890Z,1009.21
2018-07-22T05:52:29.874Z,1009.20
2018-07-22T05:53:29.858Z,1009.11
2018-07-22T05:54:29.845Z,1009.02
2018-07-22T05:55:29.832Z,1009.02
2018-07-22T05:56:29.822Z,1008.99
2018-07-22T05:57:29.822Z,1009.00
2018-07-22T05:58:29.802Z,1008.93
2018-07-22T05:59:29.799Z,1008.91
2018-07-22T06:00:29.783Z,1008.92
2018-07-22T06:01:29.782Z,1008.91
2018-07-22T06:02:29.762Z,1008.94
2018-07-22T06:03:29.751Z,1008.96
2018-07-22T06:04:29.760Z,1008.96
2018-07-22T06:05:29.735Z,1008.94
2018-07-22T06:06:29.728Z,1009.02
2018-07-22T06:07:29.717Z,1009.05
2018-07-22T06:08:29.720Z,1009.10
2018-07-22T06:09:29.712Z,1009.10
2018-07-22T06:10:29.691Z,1009.15
2018-07-22T06:11:29.689Z,1009.19
2018-07-22T06:12:29.725Z,1009.20
2018-07-22T06:13:29.668Z,1008.97
2018-07-22T06:14:29.661Z,1009.15
2018-07-22T06:15:29.656Z,1009.18
2018-07-22T06:16:29.654Z,1009.19
2018-07-22T06:17:29.646Z,1009.18
2018-07-22T06:18:29.631Z,1009.22
2018-07-22T06:19:29.629Z,1009.26
2018-07-22T06:20:29.616Z,1009.22
2018-07-22T06:21:29.612Z,1009.14
2018-07-22T06:22:29.614Z,1009.10
2018-07-22T06:23:29.695Z,1009.12
2018-07-22T06:24:29.602Z,1009.12
2018-07-22T06:25:29.590Z,1009.06
2018-07-22T06:26:29.580Z,1009.10
2018-07-22T06:27:29.572Z,1009.09
2018-07-22T06:28:29.568Z,1009.11
2018-07-22T06:29:29.566Z,1009.11
2018-07-22T06:30:29.561Z,1009.16
2018-07-22T06:31:29.552Z,1009.16
2018-07-22T06:32:29.562Z,1009.14
2018-07-22T06:33:29.542Z,1009.14
2018-07-22T06:34:29.540Z,1009.12
2018-07-22T06:35:29.532Z,1009.17
2018-07-22T06:36:29.535Z,1009.16
2018-07-22T06:37:29.532Z,1009.12
2018-07-22T06:38:29.521Z,1009.15
2018-07-22T06:39:29.516Z,1009.10
2018-07-22T06:40:29.511Z,1009.05
2018-07-22T06:41:29.509Z,1009.07
2018-07-22T06:42:29.514Z,1009.07
2018-07-22T06:43:29.498Z,1009.06
2018-07-22T06:44:29.497Z,1009.08
2018-07-22T06:45:29.497Z,1009.06
2018-07-22T06:46:29.508Z,1009.09
2018-07-22T06:47:29.486Z,1009.14
2018-07-22T06:48:29.484Z,1009.12
2018-07-22T06:49:29.482Z,1009.17
2018-07-22T06:50:29.479Z,1009.13
2018-07-22T06:51:29.476Z,1009.15
2018-07-22T06:52:29.492Z,1009.14
2018-07-22T06:53:29.488Z,1009.12
2018-07-22T06:54:29.476Z,1009.14
2018-07-22T06:55:29.516Z,1009.16
2018-07-22T06:56:29.463Z,1009.16
2018-07-22T06:57:29.463Z,1009.18
2018-07-22T06:58:29.463Z,1009.18
2018-07-22T06:59:29.457Z,1009.17
2018-07-22T07:00:29.455Z,1009.21
2018-07-22T07:01:29.456Z,1009.23
2018-07-22T07:02:29.454Z,1009.23
2018-07-22T07:03:29.452Z,1009.23
2018-07-22T07:04:29.457Z,1009.24
2018-07-22T07:05:29.448Z,1009.26
2018-07-22T07:06:29.451Z,1009.24
2018-07-22T07:07:29.444Z,1009.18
2018-07-22T07:08:29.471Z,1009.17
2018-07-22T07:09:29.442Z,1009.11
2018-07-22T07:10:29.485Z,1009.09
2018-07-22T07:11:29.438Z,1009.11
2018-07-22T07:12:29.443Z,1009.12
2018-07-22T07:13:29.436Z,1009.07
2018-07-22T07:14:29.438Z,1009.28
2018-07-22T07:15:29.441Z,1009.28
2018-07-22T07:16:29.446Z,1009.29
2018-07-22T07:17:29.431Z,1009.29
2018-07-22T07:18:29.438Z,1009.17
2018-07-22T07:19:29.434Z,1009.17
2018-07-22T07:20:29.428Z,1009.29
2018-07-22T07:21:29.424Z,1009.32
2018-07-22T07:22:29.424Z,1009.37
2018-07-22T07:23:29.420Z,1009.37
2018-07-22T07:24:29.422Z,1009.31
2018-07-22T07:25:29.415Z,1009.36
2018-07-22T07:26:29.469Z,1009.18
2018-07-22T07:27:29.416Z,1009.13
2018-07-22T07:28:29.428Z,1009.30
2018-07-22T07:29:29.409Z,1009.34
2018-07-22T07:30:29.411Z,1009.25
2018-07-22T07:31:29.406Z,1009.18
2018-07-22T07:32:29.401Z,1009.22
2018-07-22T07:33:29.414Z,1009.17
2018-07-22T07:34:29.398Z,1009.17
2018-07-22T07:35:29.395Z,1009.17
2018-07-22T07:36:29.395Z,1009.15
2018-07-22T07:37:29.394Z,1009.24
2018-07-22T07:38:29.389Z,1009.16
2018-07-22T07:39:29.542Z,1009.16
2018-07-22T07:40:29.385Z,1009.17
2018-07-22T07:41:29.379Z,1009.13
2018-07-22T07:42:29.381Z,1009.11
2018-07-22T07:43:29.371Z,1009.11
2018-07-22T07:44:29.366Z,1009.11
2018-07-22T07:45:29.370Z,1009.10
2018-07-22T07:46:29.358Z,1009.11
2018-07-22T07:47:29.355Z,1009.13
2018-07-22T07:48:29.350Z,1009.10
2018-07-22T07:49:29.346Z,1009.08
2018-07-22T07:50:29.345Z,1009.07
2018-07-22T07:51:29.337Z,1009.11
2018-07-22T07:52:29.330Z,1009.14
2018-07-22T07:53:29.394Z,1009.13
2018-07-22T07:54:29.320Z,1009.17
2018-07-22T07:55:29.316Z,1009.13
2018-07-22T07:56:29.309Z,1009.15
2018-07-22T07:57:29.311Z,1009.12
2018-07-22T07:58:29.310Z,1009.15
2018-07-22T07:59:29.294Z,1009.14
2018-07-22T08:00:29.295Z,1009.14
2018-07-22T08:01:29.283Z,1009.08
2018-07-22T08:02:29.277Z,1009.12
2018-07-22T08:03:29.271Z,1009.09
2018-07-22T08:04:29.274Z,1009.08
2018-07-22T08:05:29.310Z,1009.05
2018-07-22T08:06:29.258Z,1009.12
2018-07-22T08:07:29.248Z,1009.14
2018-07-22T08:08:29.248Z,1009.19
2018-07-22T08:09:29.239Z,1009.16
2018-07-22T08:10:29.333Z,1009.15
2018-07-22T08:11:29.230Z,1009.13
2018-07-22T08:12:29.222Z,1009.14
2018-07-22T08:13:29.219Z,1009.11
2018-07-22T08:14:29.211Z,1009.15
2018-07-22T08:15:29.206Z,1009.15
2018-07-22T08:16:29.199Z,1009.13
2018-07-22T08:17:29.203Z,1009.08
2018-07-22T08:18:29.190Z,1009.07
2018-07-22T08:19:29.191Z,1009.12
2018-07-22T08:20:29.180Z,1009.13
2018-07-22T08:21:29.188Z,1009.14
2018-07-22T08:22:29.165Z,1009.14
2018-07-22T08:23:29.163Z,1009.20
2018-07-22T08:24:29.154Z,1009.18
2018-07-22T08:25:29.148Z,1009.17
2018-07-22T08:26:29.158Z,1009.18
2018-07-22T08:27:29.136Z,1009.17
2018-07-22T08:28:29.130Z,1009.18
2018-07-22T08:29:29.122Z,1009.23
2018-07-22T08:30:29.147Z,1009.24
2018-07-22T08:31:29.109Z,1009.20
2018-07-22T08:32:29.110Z,1009.17
2018-07-22T08:33:29.096Z,1009.16
2018-07-22T08:34:29.096Z,1009.16
2018-07-22T08:35:29.083Z,1009.16
2018-07-22T08:36:29.074Z,1009.16
2018-07-22T08:37:29.087Z,1009.14
2018-07-22T08:38:29.063Z,1009.16
2018-07-22T08:39:29.053Z,1009.18
2018-07-22T08:40:29.046Z,1009.19
2018-07-22T08:41:29.082Z,1009.23
2018-07-22T08:42:29.032Z,1009.29
2018-07-22T08:43:29.024Z,1009.23
2018-07-22T08:44:29.016Z,1009.31
2018-07-22T08:45:29.011Z,1009.26
2018-07-22T08:46:29.004Z,1009.29
2018-07-22T08:47:28.995Z,1009.27
2018-07-22T08:48:28.988Z,1009.31
2018-07-22T08:49:28.980Z,1009.29
2018-07-22T08:50:28.973Z,1009.29
2018-07-22T08:51:28.970Z,1009.26
2018-07-22T08:52:28.974Z,1009.30
2018-07-22T08:53:28.962Z,1009.29
2018-07-22T08:54:28.948Z,1009.26
2018-07-22T08:55:28.944Z,1009.30
2018-07-22T08:56:28.931Z,1009.29
2018-07-22T08:57:28.929Z,1009.31
2018-07-22T08:58:28.967Z,1009.32
2018-07-22T08:59:28.908Z,1009.32
2018-07-22T09:00:28.906Z,1009.34
2018-07-22T09:01:28.894Z,1009.38
2018-07-22T09:02:28.888Z,1009.35
2018-07-22T09:03:28.939Z,1009.37
2018-07-22T09:04:28.875Z,1009.37
2018-07-22T09:05:28.910Z,1009.34
2018-07-22T09:06:28.859Z,1009.39
2018-07-22T09:07:28.859Z,1009.33
2018-07-22T09:08:28.851Z,1009.31
2018-07-22T09:09:28.837Z,1009.29
2018-07-22T09:10:28.830Z,1009.28
2018-07-22T09:11:28.821Z,1009.39
2018-07-22T09:12:28.815Z,1009.32
2018-07-22T09:13:28.812Z,1009.38
2018-07-22T09:14:28.809Z,1009.39
2018-07-22T09:15:28.796Z,1009.36
2018-07-22T09:16:28.803Z,1009.39
2018-07-22T09:17:28.780Z,1009.41
2018-07-22T09:18:28.773Z,1009.37
2018-07-22T09:19:28.776Z,1009.41
2018-07-22T09:20:28.776Z,1009.43
2018-07-22T09:21:28.755Z,1009.47
2018-07-22T09:22:28.754Z,1009.48
2018-07-22T09:23:28.737Z,1009.55
2018-07-22T09:24:28.736Z,1009.50
2018-07-22T09:25:28.727Z,1009.51
2018-07-22T09:26:28.748Z,1009.48
2018-07-22T09:27:28.725Z,1009.48
2018-07-22T09:28:28.704Z,1009.63
2018-07-22T09:29:28.700Z,1009.58
2018-07-22T09:30:28.692Z,1009.63
2018-07-22T09:31:28.684Z,1009.77
2018-07-22T09:32:28.677Z,1009.53
2018-07-22T09:33:28.679Z,1009.52
2018-07-22T09:34:28.675Z,1009.53
2018-07-22T09:35:28.658Z,1009.52
2018-07-22T09:36:28.685Z,1009.53
2018-07-22T09:37:28.664Z,1009.60
2018-07-22T09:38:28.648Z,1009.67
2018-07-22T09:39:28.643Z,1009.57
2018-07-22T09:40:28.628Z,1009.60
2018-07-22T09:41:28.635Z,1009.49
2018-07-22T09:42:28.619Z,1009.51
2018-07-22T09:43:28.611Z,1009.67
2018-07-22T09:44:28.612Z,1009.61
2018-07-22T09:45:28.600Z,1009.63
2018-07-22T09:46:28.595Z,1009.68
2018-07-22T09:47:28.598Z,1009.78
2018-07-22T09:48:28.593Z,1009.84
2018-07-22T09:49:28.582Z,1009.72
2018-07-22T09:50:28.575Z,1009.70
2018-07-22T09:51:28.571Z,1009.80
2018-07-22T09:52:28.572Z,1009.80
2018-07-22T09:53:28.574Z,1009.65
2018-07-22T09:54:28.563Z,1009.64
2018-07-22T09:55:28.552Z,1009.62
2018-07-22T09:56:28.547Z,1009.81
2018-07-22T09:57:28.542Z,1009.78
2018-07-22T09:58:28.573Z,1009.65
2018-07-22T09:59:28.557Z,1009.78
2018-07-22T10:00:28.529Z,1009.65
2018-07-22T10:01:28.523Z,1009.67
2018-07-22T10:02:28.523Z,1009.64
2018-07-22T10:03:28.518Z,1009.67
2018-07-22T10:04:28.527Z,1009.69
2018-07-22T10:05:28.510Z,1009.68
2018-07-22T10:06:28.533Z,1009.77
2018-07-22T10:07:28.516Z,1009.82
2018-07-22T10:08:28.498Z,1009.84
2018-07-22T10:09:28.546Z,1009.68
2018-07-22T10:10:28.495Z,1009.73
2018-07-22T10:11:28.487Z,1009.70
2018-07-22T10:12:28.484Z,1009.81
2018-07-22T10:13:28.491Z,1009.77
2018-07-22T10:14:28.500Z,1009.80
2018-07-22T10:15:28.478Z,1009.84
2018-07-22T10:16:28.484Z,1009.82
2018-07-22T10:17:28.519Z,1009.80
2018-07-22T10:18:28.475Z,1009.76
2018-07-22T10:19:28.612Z,1009.76
2018-07-22T10:20:28.488Z,1009.71
2018-07-22T10:21:28.477Z,1009.69
2018-07-22T10:22:28.483Z,1009.70
2018-07-22T10:23:28.498Z,1009.64
2018-07-22T10:24:28.484Z,1009.74
2018-07-22T10:25:28.484Z,1009.69
2018-07-22T10:26:28.485Z,1009.74
2018-07-22T10:27:28.489Z,1009.73
2018-07-22T10:28:28.490Z,1009.67
2018-07-22T10:29:28.487Z,1009.67
2018-07-22T10:30:28.701Z,1009.62
2018-07-22T10:31:28.493Z,1009.59
2018-07-22T10:32:28.496Z,1009.58
2018-07-22T10:33:28.506Z,1009.52
2018-07-22T10:34:28.504Z,1009.50
2018-07-22T10:35:28.507Z,1009.42
2018-07-22T10:36:28.509Z,1009.38
2018-07-22T10:37:28.513Z,1009.45
2018-07-22T10:38:28.520Z,1009.43
2018-07-22T10:39:28.538Z,1009.40
2018-07-22T10:40:28.529Z,1009.36
2018-07-22T10:41:28.546Z,1009.34
2018-07-22T10:42:28.538Z,1009.33
2018-07-22T10:43:28.541Z,1009.38
2018-07-22T10:44:28.558Z,1009.36
2018-07-22T10:45:28.582Z,1009.32
2018-07-22T10:46:28.558Z,1009.29
2018-07-22T10:47:28.564Z,1009.31
2018-07-22T10:48:28.570Z,1009.22
2018-07-22T10:49:28.577Z,1009.21
2018-07-22T10:50:28.590Z,1009.15
2018-07-22T10:51:28.590Z,1009.14
2018-07-22T10:52:28.598Z,1009.10
2018-07-22T10:53:28.611Z,1009.04
2018-07-22T10:54:28.607Z,1009.07
2018-07-22T10:55:28.613Z,1009.03
2018-07-22T10:56:28.616Z,1009.00
2018-07-22T10:57:28.652Z,1009.03
2018-07-22T10:58:28.632Z,1008.99
2018-07-22T10:59:28.644Z,1008.98
2018-07-22T11:00:28.643Z,1008.95
2018-07-22T11:01:28.653Z,1008.97
2018-07-22T11:02:28.669Z,1008.99
2018-07-22T11:03:28.661Z,1008.99
2018-07-22T11:04:28.682Z,1009.24
2018-07-22T11:05:28.676Z,1009.31
2018-07-22T11:06:28.686Z,1009.46
2018-07-22T11:07:28.686Z,1009.45
2018-07-22T11:08:28.690Z,1009.46
2018-07-22T11:09:28.704Z,1009.25
2018-07-22T11:10:28.702Z,1009.08
2018-07-22T11:11:28.711Z,1009.08
2018-07-22T11:12:28.717Z,1009.08
2018-07-22T11:13:28.738Z,1009.20
2018-07-22T11:14:28.774Z,1009.37
2018-07-22T11:15:28.722Z,1009.46
2018-07-22T11:16:28.736Z,1009.46
2018-07-22T11:17:28.740Z,1009.44
2018-07-22T11:18:28.753Z,1009.40
2018-07-22T11:19:28.751Z,1009.39
2018-07-22T11:20:28.758Z,1009.37
2018-07-22T11:21:28.744Z,1009.11
2018-07-22T11:22:28.747Z,1009.19
2018-07-22T11:23:28.755Z,1009.23
2018-07-22T11:24:28.752Z,1009.31
2018-07-22T11:25:28.752Z,1009.39
2018-07-22T11:26:28.767Z,1009.45
2018-07-22T11:27:28.753Z,1009.49
2018-07-22T11:28:28.760Z,1009.42
2018-07-22T11:29:28.763Z,1009.46
2018-07-22T11:30:28.762Z,1009.54
2018-07-22T11:31:28.772Z,1009.49
2018-07-22T11:32:28.766Z,1009.40
2018-07-22T11:33:28.775Z,1009.65
2018-07-22T11:34:28.769Z,1009.57
2018-07-22T11:35:28.782Z,1009.35
2018-07-22T11:36:28.781Z,1009.41
2018-07-22T11:37:28.779Z,1009.44
2018-07-22T11:38:28.788Z,1009.42
2018-07-22T11:39:28.787Z,1009.69
2018-07-22T11:40:28.785Z,1009.51
2018-07-22T11:41:28.801Z,1009.52
2018-07-22T11:42:28.792Z,1009.38
2018-07-22T11:43:28.815Z,1009.35
2018-07-22T11:44:28.793Z,1009.30
2018-07-22T11:45:28.795Z,1009.27
2018-07-22T11:46:28.797Z,1009.28
2018-07-22T11:47:28.807Z,1009.30
2018-07-22T11:48:28.798Z,1009.27
2018-07-22T11:49:28.803Z,1009.26
2018-07-22T11:50:28.870Z,1009.24
2018-07-22T11:51:28.802Z,1009.26
2018-07-22T11:52:28.811Z,1009.31
2018-07-22T11:53:28.801Z,1009.38
2018-07-22T11:54:28.847Z,1009.35
2018-07-22T11:55:29.005Z,1009.32
2018-07-22T11:56:28.800Z,1009.33
2018-07-22T11:57:28.805Z,1009.29
2018-07-22T11:58:28.804Z,1009.30
2018-07-22T11:59:28.798Z,1009.29
2018-07-22T12:00:28.803Z,1009.31
2018-07-22T12:01:28.844Z,1009.33
2018-07-22T12:02:28.797Z,1009.32
2018-07-22T12:03:28.808Z,1009.28
2018-07-22T12:04:28.797Z,1009.30
2018-07-22T12:05:28.791Z,1009.27